Flight Track Log - Related Links

Times and Time Zones

All times are in EDT time to prevent confusion due to time zone crossing. See the DAL3865 flight status page for this flight to view local times or setup timezone preferences in your user account.

Time Position Orientation Groundspeed Altitude Reporting Facility
EDT Latitude Longitude Course Direction KTS MPH feet Rate Location/Type
Sun 03:34:24 PM 40.5503 -80.2142 282° West 290 334 6,500  Level Cleveland Center
Sun 03:35:00 PM 40.5612 -80.6221 285° West  Level FlightAware Approximate
Sun 03:35:24 PM 40.5692 -80.3289 282° West 305 351 8,600  Level Cleveland Center
Sun 03:36:00 PM 40.5813 -80.7233 285° West  Level FlightAware Approximate
Sun 03:36:24 PM 40.5903 -80.4408 284° West 316 364 11,100  Level Cleveland Center
Sun 03:37:00 PM 40.6086 -80.8217 291° West  Level FlightAware Approximate
Sun 03:37:24 PM 40.6092 -80.5639 281° West 395 455 12,400  Level Cleveland Center
Sun 03:38:00 PM 40.6311 -80.9220 285° West  Level FlightAware Approximate
Sun 03:38:24 PM 40.6300 -80.6953 282° West 384 442 14,000  Level Cleveland Center
Sun 03:39:00 PM 40.6537 -81.0224 282° West  Level FlightAware Approximate
Sun 03:39:24 PM 40.6506 -80.8158 283° West 373 429 15,300  Level Cleveland Center
Sun 03:41:24 PM 40.6933 -81.1144 281° West 415 478 16,000 233 Climbing Cleveland Center
Sun 03:42:24 PM 40.7175 -81.2653 282° West 437 503 16,000  Level Cleveland Center
Sun 03:43:24 PM 40.7417 -81.4133 282° West 421 484 16,000  Level Cleveland Center
Sun 03:44:24 PM 40.8242 -81.5353 312° West 390 449 16,000  Level Cleveland Center
Sun 03:45:24 PM 40.9108 -81.6353 319° Northwest 400 460 16,000  Level Cleveland Center
Sun 03:46:24 PM 40.9994 -81.7358 319° Northwest 415 478 16,000  Level Cleveland Center
Sun 03:47:24 PM 41.0839 -81.8339 319° Northwest 410 472 16,000  Level Cleveland Center
Sun 03:48:24 PM 41.1600 -81.9208 319° Northwest 384 442 16,000  Level Cleveland Center
Sun 03:49:24 PM 41.2319 -82.0050 319° Northwest 357 411 16,000  Level Cleveland Center
Sun 03:50:24 PM 41.3017 -82.0922 317° Northwest 347 399 16,000  Level Cleveland Center
Sun 03:51:24 PM 41.3631 -82.1767 314° West 342 394 16,000  Level Cleveland Center
Sun 03:53:24 PM 41.4831 -82.3736 309° West 347 399 16,000 -200 Level Cleveland Center
Sun 03:54:24 PM 41.5461 -82.4753 310° West 347 399 15,400 -850 Descending Cleveland Center
Sun 03:55:24 PM 41.6089 -82.5828 308° West 347 399 14,300 -1,050 Descending Cleveland Center
Sun 03:56:24 PM 41.6575 -82.6647 308° West 340 391 13,300 850 Descending Cleveland Center
Sun 03:57:24 PM 41.7119 -82.7583 308° West 334 384 16,000 -700 Climbing Cleveland Center
Sun 03:58:24 PM 41.7669 -82.8325 315° West 309 356 11,900 -3,600 Descending Cleveland Center
Sun 03:58:39 PM 41.7914 -82.8586 321° Northwest 278 320 11,500 -1,000 Descending Cleveland Center
Sun 03:59:24 PM 41.8261 -82.9017 317° Northwest 288 331 10,900 -984 Descending Cleveland Center
Sun 03:59:40 PM 41.8356 -82.9381 289° West 272 313 10,500 -1,000 Descending Cleveland Center
Sun 04:00:24 PM 41.8511 -82.9972 289° West 272 313 9,900 -984 Descending Cleveland Center
Sun 04:00:41 PM 41.8586 -83.0367 284° West 273 314 9,500 -1,077 Descending Cleveland Center
Sun 04:01:42 PM 41.8817 -83.1322 288° West 262 302 8,500 -932 Descending Cleveland Center
Sun 04:02:24 PM 41.8908 -83.1828 284° West 266 306 7,900 -1,082 Descending Cleveland Center
Sun 04:02:43 PM 41.9044 -83.2253 293° West 249 287 7,400 -1,200 Descending Cleveland Center
Sun 04:03:24 PM 41.9136 -83.2786 283° West 255 293 6,700 -984 Descending Cleveland Center
Sun 04:03:44 PM 41.9211 -83.3125 287° West 234 269 6,400 -700 Descending Cleveland Center
Sun 04:04:24 PM 41.9306 -83.3519 288° West 240 276 6,000 -787 Descending Cleveland Center
Sun 04:04:45 PM 41.9550 -83.3811 318° Northwest 216 249 5,600 -1,281 Descending Cleveland Center
Sun 04:05:53 PM 42.0100 -83.4336 325° Northwest 216 249 4,100 -1,268 Descending Cleveland Center
Sun 04:06:48 PM 42.0575 -83.4469 348° North 180 207 3,000 -672 Descending Cleveland Center
Sun 04:07:49 PM 42.1019 -83.4239 21° North 166 191 2,800 -563 Descending Cleveland Center
Sun 04:08:56 PM 42.1444 -83.3919 29° Northeast 135 155 1,800 -844 Descending Cleveland Center
Sun 04:09:57 PM 42.1783 -83.3656 30° Northeast 136 157 1,000 -787 Descending Cleveland Center

Login

Don't have an account? Register now (free) for customized features, flight alerts, and more!